createdAt,value
2022-12-16T00:01:18.705Z,6.20
2022-12-16T00:03:57.273Z,6.20
2022-12-16T00:06:29.655Z,6.20
2022-12-16T00:08:56.904Z,6.20
2022-12-16T00:11:24.213Z,6.20
2022-12-16T00:13:51.392Z,6.20
2022-12-16T00:16:20.865Z,6.20
2022-12-16T00:18:48.261Z,6.20
2022-12-16T00:21:15.649Z,6.10
2022-12-16T00:23:42.657Z,6.20
2022-12-16T00:26:10.855Z,6.20
2022-12-16T00:28:39.114Z,6.10
2022-12-16T00:31:07.162Z,6.10
2022-12-16T00:33:34.748Z,6.10
2022-12-16T00:36:01.970Z,6.10
2022-12-16T00:38:29.437Z,6.10
2022-12-16T00:40:56.497Z,6.10
2022-12-16T00:43:23.416Z,6.10
2022-12-16T00:45:51.918Z,6.10
2022-12-16T00:48:19.447Z,6.10
2022-12-16T00:50:50.386Z,6.10
2022-12-16T00:53:20.743Z,6.10
2022-12-16T00:55:47.817Z,6.10
2022-12-16T00:58:15.098Z,6.20
2022-12-16T01:00:42.125Z,6.10
2022-12-16T01:03:09.669Z,6.10
2022-12-16T01:05:38.974Z,6.10
2022-12-16T01:08:06.283Z,6.10
2022-12-16T01:10:33.339Z,6.10
2022-12-16T01:13:00.361Z,6.10
2022-12-16T01:15:27.482Z,6.10
2022-12-16T01:17:54.498Z,6.10
2022-12-16T01:20:22.399Z,6.00
2022-12-16T01:22:49.510Z,6.00
2022-12-16T01:25:17.738Z,6.00
2022-12-16T01:27:44.774Z,5.90
2022-12-16T01:30:12.244Z,5.90
2022-12-16T01:32:39.206Z,5.90
2022-12-16T01:35:18.027Z,5.80
2022-12-16T01:37:50.472Z,5.90
2022-12-16T01:40:20.816Z,5.80
2022-12-16T01:42:47.902Z,5.80
2022-12-16T01:45:35.909Z,5.80
2022-12-16T01:48:50.936Z,5.80
2022-12-16T01:51:26.470Z,5.80
2022-12-16T01:56:53.722Z,5.80
2022-12-16T01:59:24.572Z,5.80
2022-12-16T02:01:52.500Z,5.80
2022-12-16T02:04:19.649Z,5.70
2022-12-16T02:06:47.152Z,5.70
2022-12-16T02:09:17.768Z,5.70
2022-12-16T02:15:13.992Z,5.60
2022-12-16T02:18:00.864Z,5.60
2022-12-16T02:21:05.558Z,5.70
2022-12-16T02:23:53.717Z,5.60
2022-12-16T02:26:49.116Z,5.60
2022-12-16T02:29:44.068Z,5.60
2022-12-16T02:32:35.418Z,5.60
2022-12-16T02:35:23.103Z,5.60
2022-12-16T02:38:08.337Z,5.60
2022-12-16T02:41:06.913Z,5.60
2022-12-16T02:46:43.100Z,5.70
2022-12-16T02:49:30.523Z,5.70
2022-12-16T02:51:59.756Z,5.60
2022-12-16T02:54:28.249Z,5.70
2022-12-16T02:57:04.099Z,5.70
2022-12-16T02:59:30.956Z,5.70
2022-12-16T03:02:33.836Z,5.70
2022-12-16T03:05:08.153Z,5.70
2022-12-16T03:07:38.507Z,5.60
2022-12-16T03:10:08.599Z,5.70
2022-12-16T03:12:38.264Z,5.70
2022-12-16T03:15:07.770Z,5.70
2022-12-16T03:20:30.076Z,5.70
2022-12-16T03:23:03.171Z,5.70
2022-12-16T03:25:32.617Z,5.70
2022-12-16T03:28:16.179Z,5.70
2022-12-16T03:30:48.911Z,5.70
2022-12-16T03:33:28.649Z,5.70
2022-12-16T03:36:22.352Z,5.70
2022-12-16T03:38:51.232Z,5.70
2022-12-16T03:41:20.745Z,5.70
2022-12-16T03:43:49.455Z,5.70
2022-12-16T03:46:17.430Z,5.70
2022-12-16T03:48:49.834Z,5.60
2022-12-16T03:54:02.388Z,5.60
2022-12-16T03:56:29.381Z,5.60
2022-12-16T03:58:56.409Z,5.60
2022-12-16T04:01:23.627Z,5.60
2022-12-16T04:03:50.731Z,5.50
2022-12-16T04:06:18.711Z,5.50
2022-12-16T04:11:49.919Z,5.60
2022-12-16T04:14:35.255Z,5.60
2022-12-16T04:17:21.228Z,5.60
2022-12-16T04:20:07.293Z,5.60
2022-12-16T04:23:02.331Z,5.60
2022-12-16T04:28:18.488Z,5.60
2022-12-16T04:30:45.481Z,5.60
2022-12-16T04:33:33.937Z,5.60
2022-12-16T04:36:19.822Z,5.60
2022-12-16T04:39:05.041Z,5.60
2022-12-16T04:44:53.972Z,5.60
2022-12-16T04:47:57.968Z,5.70
2022-12-16T04:50:43.716Z,5.70
2022-12-16T04:53:29.335Z,5.70
2022-12-16T04:56:15.173Z,5.70
2022-12-16T05:02:14.695Z,5.70
2022-12-16T05:05:00.607Z,5.70
2022-12-16T05:07:45.953Z,5.70
2022-12-16T05:10:31.348Z,5.70
2022-12-16T05:13:16.975Z,5.70
2022-12-16T05:16:02.380Z,5.70
2022-12-16T05:18:48.267Z,5.80
2022-12-16T05:21:33.609Z,5.80
2022-12-16T05:24:19.148Z,5.80
2022-12-16T05:27:04.800Z,5.80
2022-12-16T05:29:50.502Z,5.80
2022-12-16T05:32:42.500Z,5.80
2022-12-16T05:35:27.988Z,5.80
2022-12-16T05:38:13.543Z,5.90
2022-12-16T05:40:59.189Z,5.90
2022-12-16T05:43:44.946Z,5.90
2022-12-16T05:46:30.416Z,5.90
2022-12-16T05:49:16.241Z,5.90
2022-12-16T05:52:02.136Z,5.90
2022-12-16T05:54:48.040Z,5.90
2022-12-16T05:57:33.695Z,6.00
2022-12-16T06:00:19.040Z,5.90
2022-12-16T06:03:05.053Z,5.90
2022-12-16T06:05:50.723Z,5.90
2022-12-16T06:08:36.303Z,5.90
2022-12-16T06:11:21.731Z,5.90
2022-12-16T06:14:07.331Z,5.90
2022-12-16T06:16:53.199Z,6.00
2022-12-16T06:19:38.879Z,6.00
2022-12-16T06:22:24.293Z,6.00
2022-12-16T06:25:09.764Z,6.00
2022-12-16T06:27:55.164Z,6.00
2022-12-16T06:30:40.708Z,6.00
2022-12-16T06:33:26.296Z,6.00
2022-12-16T06:36:11.859Z,6.00
2022-12-16T06:38:57.262Z,6.00
2022-12-16T06:41:47.156Z,6.00
2022-12-16T06:44:32.821Z,6.00
2022-12-16T06:47:18.464Z,6.10
2022-12-16T06:50:04.249Z,6.10
2022-12-16T06:52:50.351Z,6.00
2022-12-16T06:55:35.984Z,6.00
2022-12-16T06:58:21.394Z,6.00
2022-12-16T07:01:07.361Z,5.90
2022-12-16T07:03:52.811Z,5.90
2022-12-16T07:06:38.524Z,6.00
2022-12-16T07:09:24.283Z,5.90
2022-12-16T07:12:09.803Z,5.90
2022-12-16T07:14:55.525Z,6.00
2022-12-16T07:17:41.463Z,6.00
2022-12-16T07:20:27.715Z,6.00
2022-12-16T07:23:19.303Z,6.10
2022-12-16T07:26:05.616Z,6.10
2022-12-16T07:28:50.917Z,6.10
2022-12-16T07:31:36.852Z,6.10
2022-12-16T07:34:22.552Z,6.10
2022-12-16T07:37:07.912Z,6.10
2022-12-16T07:39:55.348Z,6.10
2022-12-16T07:42:42.260Z,6.10
2022-12-16T07:45:28.415Z,6.10
2022-12-16T07:48:14.357Z,6.20
2022-12-16T07:51:00.334Z,6.20
2022-12-16T07:53:45.780Z,6.20
2022-12-16T07:56:31.118Z,6.20
2022-12-16T07:59:16.640Z,6.20
2022-12-16T08:02:02.227Z,6.20
2022-12-16T08:04:47.655Z,6.20
2022-12-16T08:07:33.268Z,6.20
2022-12-16T08:10:18.662Z,6.20
2022-12-16T08:13:11.717Z,6.20
2022-12-16T08:15:57.303Z,6.20
2022-12-16T08:18:42.839Z,6.20
2022-12-16T08:21:28.201Z,6.20
2022-12-16T08:24:13.716Z,6.30
2022-12-16T08:26:59.515Z,6.30
2022-12-16T08:29:45.703Z,6.30
2022-12-16T08:32:32.804Z,6.30
2022-12-16T08:35:18.638Z,6.30
2022-12-16T08:38:12.057Z,6.40
2022-12-16T08:41:02.749Z,6.40
2022-12-16T08:43:54.945Z,6.40
2022-12-16T08:46:40.771Z,6.40
2022-12-16T08:49:26.555Z,6.40
2022-12-16T08:52:12.167Z,6.50
2022-12-16T08:54:57.742Z,6.50
2022-12-16T08:57:44.510Z,6.50
2022-12-16T09:00:48.756Z,6.50
2022-12-16T09:03:34.754Z,6.50
2022-12-16T09:06:20.725Z,6.50
2022-12-16T09:09:06.131Z,6.60
2022-12-16T09:11:51.721Z,6.50
2022-12-16T09:14:44.782Z,6.60
2022-12-16T09:17:30.620Z,6.60
2022-12-16T09:20:16.139Z,6.60
2022-12-16T09:23:01.487Z,6.60
2022-12-16T09:25:46.945Z,6.70
2022-12-16T09:28:32.428Z,6.60
2022-12-16T09:31:17.917Z,6.70
2022-12-16T09:34:03.528Z,6.70
2022-12-16T09:36:49.166Z,6.70
2022-12-16T09:39:34.675Z,6.70
2022-12-16T09:42:38.992Z,6.70
2022-12-16T09:45:27.736Z,6.70
2022-12-16T09:48:31.204Z,6.70
2022-12-16T09:51:23.247Z,6.70
2022-12-16T09:54:11.811Z,6.70
2022-12-16T09:56:57.552Z,6.70
2022-12-16T10:00:08.109Z,6.70
2022-12-16T10:02:53.819Z,6.70
2022-12-16T10:05:54.456Z,6.70
2022-12-16T10:08:50.282Z,6.70
2022-12-16T10:12:02.372Z,6.70
2022-12-16T10:14:58.457Z,6.70
2022-12-16T10:17:44.644Z,6.70
2022-12-16T10:20:48.587Z,6.70
2022-12-16T10:23:48.163Z,6.70
2022-12-16T10:26:41.436Z,6.70
2022-12-16T10:29:38.911Z,6.70
2022-12-16T10:32:52.048Z,6.70
2022-12-16T10:35:42.609Z,6.70
2022-12-16T10:38:57.757Z,6.70
2022-12-16T10:41:47.765Z,6.80
2022-12-16T10:44:59.672Z,6.80
2022-12-16T10:47:45.252Z,6.80
2022-12-16T10:50:32.880Z,6.80
2022-12-16T10:53:22.717Z,6.80
2022-12-16T10:56:08.062Z,6.80
2022-12-16T10:59:06.326Z,6.80
2022-12-16T11:01:51.890Z,6.80
2022-12-16T11:04:52.558Z,6.80
2022-12-16T11:08:05.005Z,6.90
2022-12-16T11:10:58.919Z,6.90
2022-12-16T11:13:51.865Z,6.90
2022-12-16T11:16:48.173Z,6.80
2022-12-16T11:19:43.529Z,6.80
2022-12-16T11:22:38.203Z,6.70
2022-12-16T11:25:32.824Z,6.70
2022-12-16T11:28:32.675Z,6.80
2022-12-16T11:31:33.780Z,6.80
2022-12-16T11:34:21.523Z,6.80
2022-12-16T11:37:11.106Z,6.80
2022-12-16T11:39:58.721Z,6.90
2022-12-16T11:42:51.432Z,6.90
2022-12-16T11:45:39.620Z,6.90
2022-12-16T11:48:36.172Z,6.90
2022-12-16T11:51:23.190Z,7.00
2022-12-16T11:54:35.721Z,7.00
2022-12-16T11:57:24.495Z,7.00
2022-12-16T12:00:17.710Z,7.00
2022-12-16T12:03:17.344Z,7.10
2022-12-16T12:06:25.363Z,7.10
2022-12-16T12:09:30.194Z,7.10
2022-12-16T12:12:30.990Z,7.10
2022-12-16T12:15:27.819Z,7.20
2022-12-16T12:18:35.953Z,7.10
2022-12-16T12:21:32.103Z,7.20
2022-12-16T12:24:20.496Z,7.20
2022-12-16T12:27:17.916Z,7.20
2022-12-16T12:30:16.717Z,7.20
2022-12-16T12:33:08.498Z,7.20
2022-12-16T12:36:39.851Z,7.30
2022-12-16T12:39:25.476Z,7.30
2022-12-16T12:42:45.670Z,7.30
2022-12-16T12:45:54.666Z,7.30
2022-12-16T12:49:06.017Z,7.40
2022-12-16T12:52:14.568Z,7.40
2022-12-16T12:55:22.245Z,7.40
2022-12-16T12:58:09.405Z,7.40
2022-12-16T13:01:04.177Z,7.40
2022-12-16T13:04:20.002Z,7.40
2022-12-16T13:07:06.109Z,7.40
2022-12-16T13:09:56.753Z,7.40
2022-12-16T13:12:50.388Z,7.50
2022-12-16T13:15:57.381Z,7.50
2022-12-16T13:18:48.097Z,7.50
2022-12-16T13:21:56.395Z,7.50
2022-12-16T13:24:45.464Z,7.50
2022-12-16T13:27:35.700Z,7.50
2022-12-16T13:30:39.131Z,7.50
2022-12-16T13:33:51.087Z,7.50
2022-12-16T13:36:37.463Z,7.50
2022-12-16T13:39:40.485Z,7.50
2022-12-16T13:42:51.732Z,7.50
2022-12-16T13:46:02.166Z,7.50
2022-12-16T13:49:05.465Z,7.50
2022-12-16T13:51:56.740Z,7.50
2022-12-16T13:54:47.872Z,7.50
2022-12-16T13:57:36.718Z,7.50
2022-12-16T14:00:24.686Z,7.50
2022-12-16T14:03:11.454Z,7.50
2022-12-16T14:06:01.636Z,7.50
2022-12-16T14:08:55.113Z,7.50
2022-12-16T14:12:06.528Z,7.50
2022-12-16T14:15:03.184Z,7.50
2022-12-16T14:18:18.042Z,7.50
2022-12-16T14:21:13.247Z,7.60
2022-12-16T14:24:10.598Z,7.50
2022-12-16T14:26:57.117Z,7.60
2022-12-16T14:29:51.732Z,7.60
2022-12-16T14:32:43.253Z,7.60
2022-12-16T14:35:35.904Z,7.50
2022-12-16T14:38:44.819Z,7.60
2022-12-16T14:41:41.416Z,7.60
2022-12-16T14:44:41.453Z,7.60
2022-12-16T14:47:39.073Z,7.60
2022-12-16T14:50:44.842Z,7.60
2022-12-16T14:53:34.867Z,7.60
2022-12-16T14:56:41.366Z,7.60
2022-12-16T14:59:36.062Z,7.60
2022-12-16T15:02:48.456Z,7.60
2022-12-16T15:05:34.392Z,7.60
2022-12-16T15:08:19.967Z,7.60
2022-12-16T15:11:05.834Z,7.50
2022-12-16T15:13:54.337Z,7.50
2022-12-16T15:16:51.686Z,7.50
2022-12-16T15:19:41.313Z,7.50
2022-12-16T15:22:34.864Z,7.50
2022-12-16T15:25:21.627Z,7.50
2022-12-16T15:28:15.284Z,7.50
2022-12-16T15:31:05.413Z,7.50
2022-12-16T15:33:56.439Z,7.50
2022-12-16T15:36:51.368Z,7.60
2022-12-16T15:39:53.542Z,7.60
2022-12-16T15:42:47.926Z,7.60
2022-12-16T15:45:36.316Z,7.60
2022-12-16T15:48:32.226Z,7.60
2022-12-16T15:51:17.745Z,7.60
2022-12-16T15:54:03.277Z,7.60
2022-12-16T15:57:03.803Z,7.60
2022-12-16T15:59:52.372Z,7.60
2022-12-16T16:02:46.904Z,7.60
2022-12-16T16:05:34.081Z,7.60
2022-12-16T16:08:19.726Z,7.60
2022-12-16T16:11:05.478Z,7.60
2022-12-16T16:13:51.348Z,7.60
2022-12-16T16:16:37.417Z,7.70
2022-12-16T16:19:28.321Z,7.70
2022-12-16T16:22:13.986Z,7.70
2022-12-16T16:25:02.000Z,7.70
2022-12-16T16:27:47.724Z,7.70
2022-12-16T16:30:33.009Z,7.70
2022-12-16T16:33:18.481Z,7.70
2022-12-16T16:36:04.147Z,7.70
2022-12-16T16:38:49.473Z,7.70
2022-12-16T16:41:35.833Z,7.70
2022-12-16T16:44:21.335Z,7.80
2022-12-16T16:47:23.625Z,7.80
2022-12-16T16:50:09.253Z,7.80
2022-12-16T16:52:54.912Z,7.80
2022-12-16T16:55:42.781Z,7.80
2022-12-16T16:58:46.914Z,7.80
2022-12-16T17:01:35.256Z,7.80
2022-12-16T17:04:21.642Z,7.80
2022-12-16T17:07:07.607Z,7.80
2022-12-16T17:09:52.978Z,7.80
2022-12-16T17:12:40.437Z,7.80
2022-12-16T17:15:32.252Z,7.80
2022-12-16T17:18:18.033Z,7.90
2022-12-16T17:21:03.554Z,7.90
2022-12-16T17:23:52.175Z,7.80
2022-12-16T17:26:37.854Z,7.80
2022-12-16T17:29:23.691Z,7.70
2022-12-16T17:32:11.283Z,7.70
2022-12-16T17:34:56.684Z,7.70
2022-12-16T17:37:42.287Z,7.70
2022-12-16T17:40:28.572Z,7.70
2022-12-16T17:43:14.268Z,7.70
2022-12-16T17:45:59.963Z,7.70
2022-12-16T17:48:45.907Z,7.70
2022-12-16T17:51:31.562Z,7.70
2022-12-16T17:54:23.815Z,7.70
2022-12-16T17:57:10.623Z,7.70
2022-12-16T18:00:10.309Z,7.70
2022-12-16T18:02:58.877Z,7.70
2022-12-16T18:05:45.139Z,7.70
2022-12-16T18:08:30.986Z,7.70
2022-12-16T18:11:17.342Z,7.70
2022-12-16T18:14:02.987Z,7.70
2022-12-16T18:16:48.900Z,7.70
2022-12-16T18:19:35.605Z,7.70
2022-12-16T18:22:22.079Z,7.80
2022-12-16T18:25:07.722Z,7.70
2022-12-16T18:27:55.203Z,7.80
2022-12-16T18:30:40.868Z,7.80
2022-12-16T18:33:27.004Z,7.70
2022-12-16T18:36:12.722Z,7.70
2022-12-16T18:38:58.543Z,7.70
2022-12-16T18:41:44.154Z,7.70
2022-12-16T18:44:31.958Z,7.70
2022-12-16T18:47:19.678Z,7.70
2022-12-16T18:50:05.109Z,7.70
2022-12-16T18:52:50.621Z,7.70
2022-12-16T18:55:36.003Z,7.70
2022-12-16T19:01:30.882Z,7.70
2022-12-16T19:04:17.676Z,7.70
2022-12-16T19:07:03.735Z,7.70
2022-12-16T19:09:49.214Z,7.70
2022-12-16T19:12:35.016Z,7.60
2022-12-16T19:15:20.386Z,7.70
2022-12-16T19:18:06.099Z,7.60
2022-12-16T19:20:51.490Z,7.70
2022-12-16T19:23:37.916Z,7.70
2022-12-16T19:26:23.974Z,7.70
2022-12-16T19:29:09.610Z,7.70
2022-12-16T19:31:56.046Z,7.70
2022-12-16T19:34:42.106Z,7.70
2022-12-16T19:37:27.574Z,7.70
2022-12-16T19:40:13.059Z,7.70
2022-12-16T19:42:58.503Z,7.70
2022-12-16T19:45:44.111Z,7.70
2022-12-16T19:48:29.837Z,7.70
2022-12-16T19:51:16.618Z,7.70
2022-12-16T19:54:02.943Z,7.70
2022-12-16T19:56:49.576Z,7.70
2022-12-16T19:59:34.965Z,7.70
2022-12-16T20:02:20.865Z,7.70
2022-12-16T20:05:06.596Z,7.80
2022-12-16T20:07:51.851Z,7.80
2022-12-16T20:10:37.521Z,7.80
2022-12-16T20:13:30.181Z,7.80
2022-12-16T20:16:27.387Z,7.80
2022-12-16T20:19:13.922Z,7.80
2022-12-16T20:22:06.791Z,7.80
2022-12-16T20:24:52.924Z,7.80
2022-12-16T20:27:42.271Z,7.80
2022-12-16T20:30:28.844Z,7.80
2022-12-16T20:33:14.555Z,7.80
2022-12-16T20:36:00.028Z,7.80
2022-12-16T20:38:45.562Z,7.80
2022-12-16T20:41:31.112Z,7.80
2022-12-16T20:44:17.010Z,7.80
2022-12-16T20:47:02.780Z,7.80
2022-12-16T20:49:48.328Z,7.80
2022-12-16T20:52:33.872Z,7.80
2022-12-16T20:55:19.164Z,7.80
2022-12-16T20:58:04.598Z,7.80
2022-12-16T21:00:50.193Z,7.90
2022-12-16T21:03:35.928Z,7.90
2022-12-16T21:06:23.317Z,7.90
2022-12-16T21:09:08.877Z,7.90
2022-12-16T21:11:56.392Z,7.90
2022-12-16T21:14:42.095Z,7.80
2022-12-16T21:17:27.687Z,7.90
2022-12-16T21:20:13.194Z,7.90
2022-12-16T21:22:58.581Z,7.90
2022-12-16T21:25:44.179Z,7.80
2022-12-16T21:28:31.237Z,7.80
2022-12-16T21:31:20.326Z,7.90
2022-12-16T21:34:05.754Z,7.80
2022-12-16T21:36:51.337Z,7.80
2022-12-16T21:39:37.088Z,7.80
2022-12-16T21:42:22.877Z,7.80
2022-12-16T21:45:08.373Z,7.80
2022-12-16T21:47:53.891Z,7.80
2022-12-16T21:50:41.841Z,7.90
2022-12-16T21:53:27.772Z,7.90
2022-12-16T21:56:15.045Z,7.80
2022-12-16T21:59:03.725Z,7.80
2022-12-16T22:01:49.239Z,7.80
2022-12-16T22:04:34.995Z,7.80
2022-12-16T22:07:20.473Z,7.80
2022-12-16T22:10:05.922Z,7.80
2022-12-16T22:12:56.101Z,7.80
2022-12-16T22:15:41.962Z,7.80
2022-12-16T22:18:27.421Z,7.90
2022-12-16T22:21:22.675Z,7.90
2022-12-16T22:24:08.971Z,7.90
2022-12-16T22:26:54.777Z,8.00
2022-12-16T22:29:42.234Z,8.00
2022-12-16T22:32:35.178Z,8.00
2022-12-16T22:35:20.637Z,8.00
2022-12-16T22:38:06.000Z,8.10
2022-12-16T22:40:51.347Z,8.10
2022-12-16T22:43:37.737Z,8.10
2022-12-16T22:46:23.614Z,8.10
2022-12-16T22:49:09.225Z,8.10
2022-12-16T22:51:55.119Z,8.10
2022-12-16T22:54:42.555Z,8.00
2022-12-16T22:57:27.990Z,8.00
2022-12-16T23:00:13.828Z,8.00
2022-12-16T23:02:59.468Z,7.90
2022-12-16T23:05:45.379Z,7.90
2022-12-16T23:08:30.727Z,7.80
2022-12-16T23:11:17.453Z,7.80
2022-12-16T23:14:03.712Z,7.80
2022-12-16T23:16:49.396Z,7.80
2022-12-16T23:19:34.956Z,7.80
2022-12-16T23:22:20.475Z,7.80
2022-12-16T23:25:05.772Z,7.80
2022-12-16T23:27:51.154Z,7.80
2022-12-16T23:30:37.678Z,7.80
2022-12-16T23:33:23.472Z,7.80
2022-12-16T23:36:09.380Z,7.90
2022-12-16T23:38:55.292Z,7.80
2022-12-16T23:41:42.100Z,7.80
2022-12-16T23:44:27.889Z,7.80
2022-12-16T23:47:13.548Z,7.80
2022-12-16T23:49:59.497Z,7.80
2022-12-16T23:52:45.029Z,7.80
2022-12-16T23:55:30.469Z,7.70
2022-12-16T23:58:20.054Z,7.70
